sensor_id;sensor_type;location;lat;lon;timestamp;P1;durP1;ratioP1;P2;durP2;ratioP2
31061;SDS011;17724;53.546;9.974;2024-01-10T00:03:15;23.53;;;15.10;;
31061;SDS011;17724;53.546;9.974;2024-01-10T00:07:17;20.27;;;13.60;;
31061;SDS011;17724;53.546;9.974;2024-01-10T00:11:17;21.50;;;13.93;;
31061;SDS011;17724;53.546;9.974;2024-01-10T00:15:18;19.10;;;13.00;;
31061;SDS011;17724;53.546;9.974;2024-01-10T00:19:18;22.07;;;14.10;;
31061;SDS011;17724;53.546;9.974;2024-01-10T00:23:19;17.90;;;12.17;;
31061;SDS011;17724;53.546;9.974;2024-01-10T00:27:20;20.83;;;13.30;;
31061;SDS011;17724;53.546;9.974;2024-01-10T00:31:20;19.27;;;12.50;;
31061;SDS011;17724;53.546;9.974;2024-01-10T00:35:21;21.70;;;13.70;;
31061;SDS011;17724;53.546;9.974;2024-01-10T00:39:21;20.70;;;11.67;;
31061;SDS011;17724;53.546;9.974;2024-01-10T00:43:22;16.83;;;11.03;;
31061;SDS011;17724;53.546;9.974;2024-01-10T00:47:22;16.07;;;11.03;;
31061;SDS011;17724;53.546;9.974;2024-01-10T00:51:23;17.03;;;11.03;;
31061;SDS011;17724;53.546;9.974;2024-01-10T00:55:23;17.67;;;11.00;;
31061;SDS011;17724;53.546;9.974;2024-01-10T00:59:24;16.47;;;10.50;;
31061;SDS011;17724;53.546;9.974;2024-01-10T01:03:24;19.50;;;11.77;;
31061;SDS011;17724;53.546;9.974;2024-01-10T01:07:25;17.93;;;11.07;;
31061;SDS011;17724;53.546;9.974;2024-01-10T01:11:26;17.80;;;12.37;;
31061;SDS011;17724;53.546;9.974;2024-01-10T01:15:26;16.67;;;11.53;;
31061;SDS011;17724;53.546;9.974;2024-01-10T01:19:27;18.30;;;11.47;;
31061;SDS011;17724;53.546;9.974;2024-01-10T01:23:27;19.40;;;12.30;;
31061;SDS011;17724;53.546;9.974;2024-01-10T01:27:28;19.37;;;13.53;;
31061;SDS011;17724;53.546;9.974;2024-01-10T01:31:29;21.13;;;14.17;;
31061;SDS011;17724;53.546;9.974;2024-01-10T01:35:30;19.40;;;13.73;;
31061;SDS011;17724;53.546;9.974;2024-01-10T01:39:30;21.67;;;14.47;;
31061;SDS011;17724;53.546;9.974;2024-01-10T01:43:31;20.70;;;14.23;;
31061;SDS011;17724;53.546;9.974;2024-01-10T01:47:32;23.97;;;14.80;;
31061;SDS011;17724;53.546;9.974;2024-01-10T01:51:33;22.30;;;14.00;;
31061;SDS011;17724;53.546;9.974;2024-01-10T01:55:36;22.97;;;14.73;;
31061;SDS011;17724;53.546;9.974;2024-01-10T01:59:37;24.60;;;15.30;;
31061;SDS011;17724;53.546;9.974;2024-01-10T02:03:37;23.03;;;14.77;;
31061;SDS011;17724;53.546;9.974;2024-01-10T02:07:38;25.50;;;14.60;;
31061;SDS011;17724;53.546;9.974;2024-01-10T02:11:38;23.87;;;14.43;;
31061;SDS011;17724;53.546;9.974;2024-01-10T02:15:39;22.80;;;14.37;;
31061;SDS011;17724;53.546;9.974;2024-01-10T02:19:40;21.97;;;12.70;;
31061;SDS011;17724;53.546;9.974;2024-01-10T02:23:40;20.67;;;12.70;;
31061;SDS011;17724;53.546;9.974;2024-01-10T02:27:41;19.83;;;11.90;;
31061;SDS011;17724;53.546;9.974;2024-01-10T02:31:41;19.20;;;11.50;;
31061;SDS011;17724;53.546;9.974;2024-01-10T02:35:42;21.53;;;12.23;;
31061;SDS011;17724;53.546;9.974;2024-01-10T02:39:42;20.30;;;11.73;;
31061;SDS011;17724;53.546;9.974;2024-01-10T02:43:43;23.63;;;12.90;;
31061;SDS011;17724;53.546;9.974;2024-01-10T02:47:44;21.33;;;13.30;;
31061;SDS011;17724;53.546;9.974;2024-01-10T02:51:45;24.43;;;13.70;;
31061;SDS011;17724;53.546;9.974;2024-01-10T02:55:46;22.57;;;12.83;;
31061;SDS011;17724;53.546;9.974;2024-01-10T02:59:46;23.63;;;13.50;;
31061;SDS011;17724;53.546;9.974;2024-01-10T03:03:47;22.90;;;12.93;;
31061;SDS011;17724;53.546;9.974;2024-01-10T03:07:47;25.67;;;14.30;;
31061;SDS011;17724;53.546;9.974;2024-01-10T03:11:47;22.30;;;13.67;;
31061;SDS011;17724;53.546;9.974;2024-01-10T03:15:48;22.00;;;14.00;;
31061;SDS011;17724;53.546;9.974;2024-01-10T03:19:49;24.30;;;14.70;;
31061;SDS011;17724;53.546;9.974;2024-01-10T03:23:50;21.33;;;11.90;;
31061;SDS011;17724;53.546;9.974;2024-01-10T03:28:00;23.30;;;14.50;;
31061;SDS011;17724;53.546;9.974;2024-01-10T03:32:00;18.27;;;10.77;;
31061;SDS011;17724;53.546;9.974;2024-01-10T03:36:01;20.13;;;10.93;;
31061;SDS011;17724;53.546;9.974;2024-01-10T03:40:03;20.57;;;11.80;;
31061;SDS011;17724;53.546;9.974;2024-01-10T03:44:03;20.37;;;11.97;;
31061;SDS011;17724;53.546;9.974;2024-01-10T03:48:04;23.23;;;11.53;;
31061;SDS011;17724;53.546;9.974;2024-01-10T03:52:06;17.77;;;10.53;;
31061;SDS011;17724;53.546;9.974;2024-01-10T03:56:06;19.07;;;11.53;;
31061;SDS011;17724;53.546;9.974;2024-01-10T04:00:07;17.27;;;9.70;;
31061;SDS011;17724;53.546;9.974;2024-01-10T04:04:09;18.70;;;10.47;;
31061;SDS011;17724;53.546;9.974;2024-01-10T04:08:09;18.23;;;10.53;;
31061;SDS011;17724;53.546;9.974;2024-01-10T04:12:09;15.70;;;9.20;;
31061;SDS011;17724;53.546;9.974;2024-01-10T04:16:10;19.43;;;10.93;;
31061;SDS011;17724;53.546;9.974;2024-01-10T04:20:10;19.10;;;10.83;;
31061;SDS011;17724;53.546;9.974;2024-01-10T04:24:11;17.20;;;10.00;;
31061;SDS011;17724;53.546;9.974;2024-01-10T04:28:11;19.27;;;11.73;;
31061;SDS011;17724;53.546;9.974;2024-01-10T04:32:12;18.90;;;10.57;;
31061;SDS011;17724;53.546;9.974;2024-01-10T04:36:12;19.83;;;10.90;;
31061;SDS011;17724;53.546;9.974;2024-01-10T04:40:13;18.57;;;12.20;;
31061;SDS011;17724;53.546;9.974;2024-01-10T04:44:13;20.13;;;12.37;;
31061;SDS011;17724;53.546;9.974;2024-01-10T04:48:14;21.07;;;11.47;;
31061;SDS011;17724;53.546;9.974;2024-01-10T04:52:14;20.93;;;12.10;;
31061;SDS011;17724;53.546;9.974;2024-01-10T04:56:15;22.40;;;12.27;;
31061;SDS011;17724;53.546;9.974;2024-01-10T05:00:15;20.10;;;11.40;;
31061;SDS011;17724;53.546;9.974;2024-01-10T05:04:16;15.90;;;9.37;;
31061;SDS011;17724;53.546;9.974;2024-01-10T05:08:16;14.10;;;7.97;;
31061;SDS011;17724;53.546;9.974;2024-01-10T05:12:20;15.90;;;7.73;;
31061;SDS011;17724;53.546;9.974;2024-01-10T05:16:20;15.53;;;7.10;;
31061;SDS011;17724;53.546;9.974;2024-01-10T05:20:21;14.37;;;7.57;;
31061;SDS011;17724;53.546;9.974;2024-01-10T05:24:22;15.13;;;7.80;;
31061;SDS011;17724;53.546;9.974;2024-01-10T05:28:23;14.73;;;7.40;;
31061;SDS011;17724;53.546;9.974;2024-01-10T05:32:23;15.77;;;8.10;;
31061;SDS011;17724;53.546;9.974;2024-01-10T05:36:24;15.83;;;8.30;;
31061;SDS011;17724;53.546;9.974;2024-01-10T05:40:24;16.07;;;8.40;;
31061;SDS011;17724;53.546;9.974;2024-01-10T05:44:25;15.73;;;8.30;;
31061;SDS011;17724;53.546;9.974;2024-01-10T05:48:25;15.70;;;9.10;;
31061;SDS011;17724;53.546;9.974;2024-01-10T05:52:26;18.17;;;10.10;;
31061;SDS011;17724;53.546;9.974;2024-01-10T05:56:26;18.77;;;9.67;;
31061;SDS011;17724;53.546;9.974;2024-01-10T06:00:27;16.63;;;9.33;;
31061;SDS011;17724;53.546;9.974;2024-01-10T06:04:28;17.30;;;9.90;;
31061;SDS011;17724;53.546;9.974;2024-01-10T06:08:31;17.73;;;10.23;;
31061;SDS011;17724;53.546;9.974;2024-01-10T06:12:31;17.37;;;9.70;;
31061;SDS011;17724;53.546;9.974;2024-01-10T06:16:32;17.17;;;8.73;;
31061;SDS011;17724;53.546;9.974;2024-01-10T06:20:32;16.10;;;8.63;;
31061;SDS011;17724;53.546;9.974;2024-01-10T06:24:33;15.90;;;9.20;;
31061;SDS011;17724;53.546;9.974;2024-01-10T06:28:33;17.13;;;9.03;;
31061;SDS011;17724;53.546;9.974;2024-01-10T06:32:34;16.70;;;8.47;;
31061;SDS011;17724;53.546;9.974;2024-01-10T06:36:35;16.03;;;9.07;;
31061;SDS011;17724;53.546;9.974;2024-01-10T06:40:35;13.20;;;7.00;;
31061;SDS011;17724;53.546;9.974;2024-01-10T06:44:37;13.77;;;7.10;;
31061;SDS011;17724;53.546;9.974;2024-01-10T06:48:37;13.03;;;6.73;;
31061;SDS011;17724;53.546;9.974;2024-01-10T06:52:38;17.30;;;8.00;;
31061;SDS011;17724;53.546;9.974;2024-01-10T06:56:38;15.13;;;8.07;;
31061;SDS011;17724;53.546;9.974;2024-01-10T07:00:39;13.80;;;7.23;;
31061;SDS011;17724;53.546;9.974;2024-01-10T07:04:39;14.33;;;7.00;;
31061;SDS011;17724;53.546;9.974;2024-01-10T07:08:40;14.20;;;7.50;;
31061;SDS011;17724;53.546;9.974;2024-01-10T07:12:42;12.33;;;7.03;;
31061;SDS011;17724;53.546;9.974;2024-01-10T07:16:42;13.93;;;7.93;;
31061;SDS011;17724;53.546;9.974;2024-01-10T07:20:45;15.57;;;8.23;;
31061;SDS011;17724;53.546;9.974;2024-01-10T07:24:46;14.30;;;8.17;;
31061;SDS011;17724;53.546;9.974;2024-01-10T07:28:46;14.13;;;7.90;;
31061;SDS011;17724;53.546;9.974;2024-01-10T07:32:47;15.17;;;9.70;;
31061;SDS011;17724;53.546;9.974;2024-01-10T07:36:48;15.40;;;9.10;;
31061;SDS011;17724;53.546;9.974;2024-01-10T07:40:48;17.80;;;11.20;;
31061;SDS011;17724;53.546;9.974;2024-01-10T07:44:49;15.87;;;9.70;;
31061;SDS011;17724;53.546;9.974;2024-01-10T07:48:49;15.53;;;8.37;;
31061;SDS011;17724;53.546;9.974;2024-01-10T07:52:50;14.93;;;9.23;;
31061;SDS011;17724;53.546;9.974;2024-01-10T07:56:50;14.33;;;8.70;;
31061;SDS011;17724;53.546;9.974;2024-01-10T08:00:50;15.80;;;8.77;;
31061;SDS011;17724;53.546;9.974;2024-01-10T08:04:52;16.10;;;9.47;;
31061;SDS011;17724;53.546;9.974;2024-01-10T08:08:52;16.47;;;9.53;;
31061;SDS011;17724;53.546;9.974;2024-01-10T08:12:53;14.10;;;8.03;;
31061;SDS011;17724;53.546;9.974;2024-01-10T08:16:54;13.90;;;7.90;;
31061;SDS011;17724;53.546;9.974;2024-01-10T08:20:58;15.90;;;9.23;;
31061;SDS011;17724;53.546;9.974;2024-01-10T08:24:58;16.73;;;9.40;;
31061;SDS011;17724;53.546;9.974;2024-01-10T08:28:59;15.50;;;8.43;;
31061;SDS011;17724;53.546;9.974;2024-01-10T08:33:00;16.33;;;9.93;;
31061;SDS011;17724;53.546;9.974;2024-01-10T08:37:00;18.10;;;9.90;;
31061;SDS011;17724;53.546;9.974;2024-01-10T08:41:01;16.17;;;8.50;;
31061;SDS011;17724;53.546;9.974;2024-01-10T08:45:02;17.30;;;10.30;;
31061;SDS011;17724;53.546;9.974;2024-01-10T08:49:03;17.50;;;9.80;;
31061;SDS011;17724;53.546;9.974;2024-01-10T08:53:03;17.03;;;9.63;;
31061;SDS011;17724;53.546;9.974;2024-01-10T08:57:05;17.30;;;9.80;;
31061;SDS011;17724;53.546;9.974;2024-01-10T09:01:06;17.10;;;10.03;;
31061;SDS011;17724;53.546;9.974;2024-01-10T09:05:08;19.30;;;10.53;;
31061;SDS011;17724;53.546;9.974;2024-01-10T09:09:10;18.80;;;10.03;;
31061;SDS011;17724;53.546;9.974;2024-01-10T09:13:10;17.63;;;9.93;;
31061;SDS011;17724;53.546;9.974;2024-01-10T09:17:11;19.10;;;10.43;;
31061;SDS011;17724;53.546;9.974;2024-01-10T09:21:11;18.87;;;10.47;;
31061;SDS011;17724;53.546;9.974;2024-01-10T09:25:12;16.47;;;9.30;;
31061;SDS011;17724;53.546;9.974;2024-01-10T09:29:13;16.23;;;9.40;;
31061;SDS011;17724;53.546;9.974;2024-01-10T09:33:14;17.33;;;9.33;;
31061;SDS011;17724;53.546;9.974;2024-01-10T09:37:15;16.20;;;8.67;;
31061;SDS011;17724;53.546;9.974;2024-01-10T09:41:15;22.00;;;14.60;;
31061;SDS011;17724;53.546;9.974;2024-01-10T09:45:17;17.23;;;10.77;;
31061;SDS011;17724;53.546;9.974;2024-01-10T09:49:19;17.53;;;10.40;;
31061;SDS011;17724;53.546;9.974;2024-01-10T09:53:25;15.53;;;9.27;;
31061;SDS011;17724;53.546;9.974;2024-01-10T09:57:26;15.97;;;9.60;;
31061;SDS011;17724;53.546;9.974;2024-01-10T10:01:27;16.40;;;9.80;;
31061;SDS011;17724;53.546;9.974;2024-01-10T10:05:28;16.33;;;8.50;;
31061;SDS011;17724;53.546;9.974;2024-01-10T10:09:29;18.73;;;9.60;;
31061;SDS011;17724;53.546;9.974;2024-01-10T10:13:33;18.17;;;11.07;;
31061;SDS011;17724;53.546;9.974;2024-01-10T10:17:35;20.90;;;13.23;;
31061;SDS011;17724;53.546;9.974;2024-01-10T10:21:36;22.13;;;13.10;;
31061;SDS011;17724;53.546;9.974;2024-01-10T10:25:37;20.13;;;11.60;;
31061;SDS011;17724;53.546;9.974;2024-01-10T10:29:43;20.50;;;13.77;;
31061;SDS011;17724;53.546;9.974;2024-01-10T10:33:44;19.97;;;11.63;;
31061;SDS011;17724;53.546;9.974;2024-01-10T10:37:45;19.80;;;11.90;;
31061;SDS011;17724;53.546;9.974;2024-01-10T10:41:46;18.30;;;11.87;;
31061;SDS011;17724;53.546;9.974;2024-01-10T10:45:48;21.17;;;11.60;;
31061;SDS011;17724;53.546;9.974;2024-01-10T10:49:51;20.13;;;11.23;;
31061;SDS011;17724;53.546;9.974;2024-01-10T10:53:54;19.37;;;10.53;;
31061;SDS011;17724;53.546;9.974;2024-01-10T10:57:56;20.40;;;10.60;;
31061;SDS011;17724;53.546;9.974;2024-01-10T11:01:58;15.30;;;9.10;;
31061;SDS011;17724;53.546;9.974;2024-01-10T11:05:59;16.90;;;9.70;;
31061;SDS011;17724;53.546;9.974;2024-01-10T11:10:02;20.43;;;10.40;;
31061;SDS011;17724;53.546;9.974;2024-01-10T11:27:10;17.03;;;9.33;;
31061;SDS011;17724;53.546;9.974;2024-01-10T11:31:12;15.70;;;8.53;;
31061;SDS011;17724;53.546;9.974;2024-01-10T11:35:19;17.33;;;9.07;;
31061;SDS011;17724;53.546;9.974;2024-01-10T11:39:24;15.47;;;8.60;;
31061;SDS011;17724;53.546;9.974;2024-01-10T11:43:27;17.00;;;9.50;;
31061;SDS011;17724;53.546;9.974;2024-01-10T11:47:27;18.30;;;9.97;;
31061;SDS011;17724;53.546;9.974;2024-01-10T11:51:29;17.03;;;9.63;;
31061;SDS011;17724;53.546;9.974;2024-01-10T11:59:53;15.87;;;8.63;;
31061;SDS011;17724;53.546;9.974;2024-01-10T12:03:55;16.00;;;7.97;;
31061;SDS011;17724;53.546;9.974;2024-01-10T12:07:57;15.00;;;8.80;;
31061;SDS011;17724;53.546;9.974;2024-01-10T12:11:59;16.93;;;9.03;;
31061;SDS011;17724;53.546;9.974;2024-01-10T12:16:00;15.77;;;9.53;;
31061;SDS011;17724;53.546;9.974;2024-01-10T12:20:00;17.20;;;10.30;;
31061;SDS011;17724;53.546;9.974;2024-01-10T12:24:03;16.87;;;10.60;;
31061;SDS011;17724;53.546;9.974;2024-01-10T12:28:06;16.73;;;9.83;;
31061;SDS011;17724;53.546;9.974;2024-01-10T12:32:07;16.33;;;9.27;;
31061;SDS011;17724;53.546;9.974;2024-01-10T12:36:09;14.33;;;9.20;;
31061;SDS011;17724;53.546;9.974;2024-01-10T12:40:11;16.13;;;8.30;;
31061;SDS011;17724;53.546;9.974;2024-01-10T12:44:11;16.53;;;8.87;;
31061;SDS011;17724;53.546;9.974;2024-01-10T12:48:15;13.47;;;7.03;;
31061;SDS011;17724;53.546;9.974;2024-01-10T12:52:17;14.50;;;7.17;;
31061;SDS011;17724;53.546;9.974;2024-01-10T12:56:19;14.80;;;7.43;;
31061;SDS011;17724;53.546;9.974;2024-01-10T13:00:20;14.80;;;7.50;;
31061;SDS011;17724;53.546;9.974;2024-01-10T13:04:20;13.83;;;7.13;;
31061;SDS011;17724;53.546;9.974;2024-01-10T13:08:21;13.97;;;7.67;;
31061;SDS011;17724;53.546;9.974;2024-01-10T13:12:21;14.83;;;8.20;;
31061;SDS011;17724;53.546;9.974;2024-01-10T13:16:22;15.10;;;7.90;;
31061;SDS011;17724;53.546;9.974;2024-01-10T13:20:24;13.27;;;7.17;;
31061;SDS011;17724;53.546;9.974;2024-01-10T13:24:25;14.90;;;6.73;;
31061;SDS011;17724;53.546;9.974;2024-01-10T13:28:25;14.33;;;7.23;;
31061;SDS011;17724;53.546;9.974;2024-01-10T13:32:27;12.10;;;5.83;;
31061;SDS011;17724;53.546;9.974;2024-01-10T13:36:28;13.00;;;6.70;;
31061;SDS011;17724;53.546;9.974;2024-01-10T13:40:28;15.73;;;8.07;;
31061;SDS011;17724;53.546;9.974;2024-01-10T13:44:29;12.20;;;6.47;;
31061;SDS011;17724;53.546;9.974;2024-01-10T13:48:29;15.73;;;7.53;;
31061;SDS011;17724;53.546;9.974;2024-01-10T13:52:30;14.50;;;6.50;;
31061;SDS011;17724;53.546;9.974;2024-01-10T13:56:30;12.13;;;6.07;;
31061;SDS011;17724;53.546;9.974;2024-01-10T14:00:32;14.20;;;7.70;;
31061;SDS011;17724;53.546;9.974;2024-01-10T14:04:32;16.10;;;8.50;;
31061;SDS011;17724;53.546;9.974;2024-01-10T14:08:33;15.30;;;7.93;;
31061;SDS011;17724;53.546;9.974;2024-01-10T14:12:34;19.70;;;11.13;;
31061;SDS011;17724;53.546;9.974;2024-01-10T14:16:34;20.10;;;11.87;;
31061;SDS011;17724;53.546;9.974;2024-01-10T14:20:35;15.27;;;7.70;;
31061;SDS011;17724;53.546;9.974;2024-01-10T14:24:36;13.10;;;7.13;;
31061;SDS011;17724;53.546;9.974;2024-01-10T14:28:36;13.97;;;7.33;;
31061;SDS011;17724;53.546;9.974;2024-01-10T14:32:37;14.13;;;7.53;;
31061;SDS011;17724;53.546;9.974;2024-01-10T14:36:37;20.50;;;11.63;;
31061;SDS011;17724;53.546;9.974;2024-01-10T14:40:38;20.50;;;10.40;;
31061;SDS011;17724;53.546;9.974;2024-01-10T14:44:38;16.47;;;7.90;;
31061;SDS011;17724;53.546;9.974;2024-01-10T14:48:40;17.23;;;11.53;;
31061;SDS011;17724;53.546;9.974;2024-01-10T14:52:41;16.67;;;10.57;;
31061;SDS011;17724;53.546;9.974;2024-01-10T14:56:42;16.07;;;10.87;;
31061;SDS011;17724;53.546;9.974;2024-01-10T15:00:44;13.30;;;7.30;;
31061;SDS011;17724;53.546;9.974;2024-01-10T15:04:45;16.27;;;10.13;;
31061;SDS011;17724;53.546;9.974;2024-01-10T15:08:45;15.10;;;9.07;;
31061;SDS011;17724;53.546;9.974;2024-01-10T15:12:47;17.87;;;11.03;;
31061;SDS011;17724;53.546;9.974;2024-01-10T15:16:48;17.70;;;9.30;;
31061;SDS011;17724;53.546;9.974;2024-01-10T15:20:49;17.20;;;10.50;;
31061;SDS011;17724;53.546;9.974;2024-01-10T15:24:49;13.97;;;8.07;;
31061;SDS011;17724;53.546;9.974;2024-01-10T15:28:50;13.43;;;8.13;;
31061;SDS011;17724;53.546;9.974;2024-01-10T15:32:54;15.73;;;8.97;;
31061;SDS011;17724;53.546;9.974;2024-01-10T15:36:54;14.30;;;8.90;;
31061;SDS011;17724;53.546;9.974;2024-01-10T15:40:55;16.90;;;10.60;;
31061;SDS011;17724;53.546;9.974;2024-01-10T15:44:57;14.00;;;8.30;;
31061;SDS011;17724;53.546;9.974;2024-01-10T15:48:57;14.87;;;7.90;;
31061;SDS011;17724;53.546;9.974;2024-01-10T15:52:58;15.87;;;9.97;;
31061;SDS011;17724;53.546;9.974;2024-01-10T15:56:59;16.90;;;9.97;;
31061;SDS011;17724;53.546;9.974;2024-01-10T16:00:59;18.67;;;12.40;;
31061;SDS011;17724;53.546;9.974;2024-01-10T16:05:00;14.83;;;8.87;;
31061;SDS011;17724;53.546;9.974;2024-01-10T16:09:00;15.10;;;9.13;;
31061;SDS011;17724;53.546;9.974;2024-01-10T16:13:02;17.13;;;11.70;;
31061;SDS011;17724;53.546;9.974;2024-01-10T16:17:03;17.67;;;11.07;;
31061;SDS011;17724;53.546;9.974;2024-01-10T16:21:04;17.63;;;11.10;;
31061;SDS011;17724;53.546;9.974;2024-01-10T16:25:05;21.03;;;13.50;;
31061;SDS011;17724;53.546;9.974;2024-01-10T16:29:06;17.63;;;11.27;;
31061;SDS011;17724;53.546;9.974;2024-01-10T16:33:06;16.77;;;8.93;;
31061;SDS011;17724;53.546;9.974;2024-01-10T16:37:08;16.33;;;10.70;;
31061;SDS011;17724;53.546;9.974;2024-01-10T16:41:09;16.90;;;10.30;;
31061;SDS011;17724;53.546;9.974;2024-01-10T16:45:09;17.00;;;9.17;;
31061;SDS011;17724;53.546;9.974;2024-01-10T16:49:10;15.80;;;9.37;;
31061;SDS011;17724;53.546;9.974;2024-01-10T16:53:11;15.70;;;9.27;;
31061;SDS011;17724;53.546;9.974;2024-01-10T16:57:11;15.87;;;9.50;;
31061;SDS011;17724;53.546;9.974;2024-01-10T17:01:12;74.73;;;46.23;;
31061;SDS011;17724;53.546;9.974;2024-01-10T17:05:15;28.93;;;18.97;;
31061;SDS011;17724;53.546;9.974;2024-01-10T17:09:15;30.40;;;19.73;;
31061;SDS011;17724;53.546;9.974;2024-01-10T17:13:16;34.00;;;19.47;;
31061;SDS011;17724;53.546;9.974;2024-01-10T17:17:17;27.90;;;20.83;;
31061;SDS011;17724;53.546;9.974;2024-01-10T17:21:17;20.93;;;11.57;;
31061;SDS011;17724;53.546;9.974;2024-01-10T17:25:18;25.20;;;17.20;;
31061;SDS011;17724;53.546;9.974;2024-01-10T17:29:19;21.33;;;14.10;;
31061;SDS011;17724;53.546;9.974;2024-01-10T17:33:20;25.73;;;18.87;;
31061;SDS011;17724;53.546;9.974;2024-01-10T17:37:21;19.97;;;13.13;;
31061;SDS011;17724;53.546;9.974;2024-01-10T17:41:21;23.57;;;13.77;;
31061;SDS011;17724;53.546;9.974;2024-01-10T17:45:22;20.30;;;12.80;;
31061;SDS011;17724;53.546;9.974;2024-01-10T17:49:22;29.97;;;21.60;;
31061;SDS011;17724;53.546;9.974;2024-01-10T17:53:23;20.00;;;13.20;;
31061;SDS011;17724;53.546;9.974;2024-01-10T17:57:23;17.77;;;12.03;;
31061;SDS011;17724;53.546;9.974;2024-01-10T18:01:26;21.87;;;15.47;;
31061;SDS011;17724;53.546;9.974;2024-01-10T18:05:27;31.73;;;25.73;;
31061;SDS011;17724;53.546;9.974;2024-01-10T18:09:27;18.33;;;11.93;;
31061;SDS011;17724;53.546;9.974;2024-01-10T18:13:28;26.27;;;20.33;;
31061;SDS011;17724;53.546;9.974;2024-01-10T18:17:28;24.80;;;15.33;;
31061;SDS011;17724;53.546;9.974;2024-01-10T18:21:29;25.33;;;20.93;;
31061;SDS011;17724;53.546;9.974;2024-01-10T18:25:30;26.10;;;18.77;;
31061;SDS011;17724;53.546;9.974;2024-01-10T18:29:30;23.43;;;17.10;;
31061;SDS011;17724;53.546;9.974;2024-01-10T18:33:31;24.00;;;15.97;;
31061;SDS011;17724;53.546;9.974;2024-01-10T18:37:31;23.53;;;14.57;;
31061;SDS011;17724;53.546;9.974;2024-01-10T18:41:32;21.10;;;13.83;;
31061;SDS011;17724;53.546;9.974;2024-01-10T18:45:32;23.03;;;16.70;;
31061;SDS011;17724;53.546;9.974;2024-01-10T18:49:33;37.07;;;25.93;;
31061;SDS011;17724;53.546;9.974;2024-01-10T18:53:33;33.80;;;23.30;;
31061;SDS011;17724;53.546;9.974;2024-01-10T18:57:34;22.10;;;15.43;;
31061;SDS011;17724;53.546;9.974;2024-01-10T19:01:36;21.50;;;14.90;;
31061;SDS011;17724;53.546;9.974;2024-01-10T19:05:37;28.47;;;21.40;;
31061;SDS011;17724;53.546;9.974;2024-01-10T19:09:37;22.00;;;14.20;;
31061;SDS011;17724;53.546;9.974;2024-01-10T19:13:38;24.33;;;19.27;;
31061;SDS011;17724;53.546;9.974;2024-01-10T19:17:41;41.37;;;26.97;;
31061;SDS011;17724;53.546;9.974;2024-01-10T19:21:42;30.40;;;20.57;;
31061;SDS011;17724;53.546;9.974;2024-01-10T19:25:43;29.83;;;23.03;;
31061;SDS011;17724;53.546;9.974;2024-01-10T19:29:43;25.07;;;17.43;;
31061;SDS011;17724;53.546;9.974;2024-01-10T19:33:44;26.80;;;19.10;;
31061;SDS011;17724;53.546;9.974;2024-01-10T19:37:47;24.83;;;17.77;;
31061;SDS011;17724;53.546;9.974;2024-01-10T19:41:48;21.07;;;15.30;;
31061;SDS011;17724;53.546;9.974;2024-01-10T19:45:48;20.80;;;13.77;;
31061;SDS011;17724;53.546;9.974;2024-01-10T19:49:49;31.27;;;21.37;;
31061;SDS011;17724;53.546;9.974;2024-01-10T19:53:50;26.17;;;18.30;;
31061;SDS011;17724;53.546;9.974;2024-01-10T19:57:50;22.87;;;16.30;;
31061;SDS011;17724;53.546;9.974;2024-01-10T20:01:51;37.77;;;24.90;;
31061;SDS011;17724;53.546;9.974;2024-01-10T20:05:51;20.37;;;13.77;;
31061;SDS011;17724;53.546;9.974;2024-01-10T20:09:52;19.90;;;13.50;;
31061;SDS011;17724;53.546;9.974;2024-01-10T20:13:52;18.00;;;12.13;;
31061;SDS011;17724;53.546;9.974;2024-01-10T20:17:53;21.30;;;14.60;;
31061;SDS011;17724;53.546;9.974;2024-01-10T20:21:53;20.83;;;14.23;;
31061;SDS011;17724;53.546;9.974;2024-01-10T20:25:54;17.60;;;12.13;;
31061;SDS011;17724;53.546;9.974;2024-01-10T20:29:54;32.23;;;23.13;;
31061;SDS011;17724;53.546;9.974;2024-01-10T20:33:56;29.60;;;22.37;;
31061;SDS011;17724;53.546;9.974;2024-01-10T20:37:56;28.57;;;20.70;;
31061;SDS011;17724;53.546;9.974;2024-01-10T20:41:57;25.57;;;18.73;;
31061;SDS011;17724;53.546;9.974;2024-01-10T20:45:57;27.57;;;19.97;;
31061;SDS011;17724;53.546;9.974;2024-01-10T20:49:58;20.10;;;13.90;;
31061;SDS011;17724;53.546;9.974;2024-01-10T20:53:59;26.30;;;20.40;;
31061;SDS011;17724;53.546;9.974;2024-01-10T20:57:59;26.20;;;18.60;;
31061;SDS011;17724;53.546;9.974;2024-01-10T21:02:00;23.53;;;16.20;;
31061;SDS011;17724;53.546;9.974;2024-01-10T21:06:00;29.00;;;22.00;;
31061;SDS011;17724;53.546;9.974;2024-01-10T21:10:01;24.83;;;18.23;;
31061;SDS011;17724;53.546;9.974;2024-01-10T21:14:01;19.20;;;13.37;;
31061;SDS011;17724;53.546;9.974;2024-01-10T21:18:03;18.63;;;12.10;;
31061;SDS011;17724;53.546;9.974;2024-01-10T21:22:04;19.77;;;12.83;;
31061;SDS011;17724;53.546;9.974;2024-01-10T21:26:05;20.63;;;12.50;;
31061;SDS011;17724;53.546;9.974;2024-01-10T21:30:05;18.70;;;13.17;;
31061;SDS011;17724;53.546;9.974;2024-01-10T21:34:06;18.40;;;12.10;;
31061;SDS011;17724;53.546;9.974;2024-01-10T21:38:07;19.20;;;14.00;;
31061;SDS011;17724;53.546;9.974;2024-01-10T21:42:07;19.40;;;13.03;;
31061;SDS011;17724;53.546;9.974;2024-01-10T21:46:08;19.70;;;12.90;;
31061;SDS011;17724;53.546;9.974;2024-01-10T21:50:08;21.27;;;14.30;;
31061;SDS011;17724;53.546;9.974;2024-01-10T21:54:09;20.07;;;13.70;;
31061;SDS011;17724;53.546;9.974;2024-01-10T21:58:13;19.87;;;13.90;;
31061;SDS011;17724;53.546;9.974;2024-01-10T22:02:14;20.50;;;13.80;;
31061;SDS011;17724;53.546;9.974;2024-01-10T22:06:15;18.40;;;13.47;;
31061;SDS011;17724;53.546;9.974;2024-01-10T22:10:16;20.23;;;13.73;;
31061;SDS011;17724;53.546;9.974;2024-01-10T22:14:16;21.57;;;14.83;;
31061;SDS011;17724;53.546;9.974;2024-01-10T22:18:17;19.20;;;13.70;;
31061;SDS011;17724;53.546;9.974;2024-01-10T22:22:18;21.10;;;14.83;;
31061;SDS011;17724;53.546;9.974;2024-01-10T22:26:19;21.13;;;15.03;;
31061;SDS011;17724;53.546;9.974;2024-01-10T22:30:21;22.07;;;16.00;;
31061;SDS011;17724;53.546;9.974;2024-01-10T22:34:21;22.00;;;15.50;;
31061;SDS011;17724;53.546;9.974;2024-01-10T22:38:22;21.27;;;15.23;;
31061;SDS011;17724;53.546;9.974;2024-01-10T22:42:22;21.73;;;15.17;;
31061;SDS011;17724;53.546;9.974;2024-01-10T22:46:22;24.37;;;17.27;;
31061;SDS011;17724;53.546;9.974;2024-01-10T22:50:23;22.40;;;15.87;;
31061;SDS011;17724;53.546;9.974;2024-01-10T22:54:23;22.80;;;15.90;;
31061;SDS011;17724;53.546;9.974;2024-01-10T22:58:24;22.07;;;15.30;;
31061;SDS011;17724;53.546;9.974;2024-01-10T23:02:24;20.20;;;13.77;;
31061;SDS011;17724;53.546;9.974;2024-01-10T23:06:25;25.60;;;16.30;;
31061;SDS011;17724;53.546;9.974;2024-01-10T23:10:25;24.33;;;16.60;;
31061;SDS011;17724;53.546;9.974;2024-01-10T23:14:26;23.40;;;15.87;;
31061;SDS011;17724;53.546;9.974;2024-01-10T23:18:26;23.03;;;16.13;;
31061;SDS011;17724;53.546;9.974;2024-01-10T23:22:27;24.67;;;17.27;;
31061;SDS011;17724;53.546;9.974;2024-01-10T23:26:28;24.63;;;16.70;;
31061;SDS011;17724;53.546;9.974;2024-01-10T23:30:32;24.20;;;15.73;;
31061;SDS011;17724;53.546;9.974;2024-01-10T23:34:33;26.23;;;16.33;;
31061;SDS011;17724;53.546;9.974;2024-01-10T23:38:34;24.50;;;16.17;;
31061;SDS011;17724;53.546;9.974;2024-01-10T23:42:34;24.63;;;15.87;;
31061;SDS011;17724;53.546;9.974;2024-01-10T23:46:35;22.53;;;15.30;;
31061;SDS011;17724;53.546;9.974;2024-01-10T23:50:35;23.53;;;15.37;;
31061;SDS011;17724;53.546;9.974;2024-01-10T23:54:35;25.37;;;15.37;;